Date,TemperatureHighF,TemperatureAvgF,TemperatureLowF,DewpointHighF,DewpointAvgF,DewpointLowF,HumidityHigh,HumidityAvg,HumidityLow,PressureMaxIn,PressureMinIn,WindSpeedMaxMPH,WindSpeedAvgMPH,GustSpeedMaxMPH,PrecipitationSumIn
2013-11-1,84,69,56,42,34,26,54,29,13,30.05,29.88,13,4,13,0.00
2013-11-2,86,70,56,41,36,28,56,30,14,29.90,29.72,11,4,12,0.00
2013-11-3,86,70,56,44,37,28,55,32,14,29.76,29.61,5,3,49,0.00
2013-11-4,79,66,54,64,45,37,87,50,22,29.73,29.59,12,5,14,0.00
2013-11-5,76,66,57,45,24,17,57,21,12,30.06,29.73,25,10,27,0.00
2013-11-6,78,67,57,24,20,16,24,17,12,30.19,30.06,17,9,21,0.00
2013-11-7,84,70,60,31,22,17,24,16,11,30.06,29.91,12,6,14,0.00
2013-11-8,86,70,59,36,27,19,37,21,11,29.94,29.81,11,4,14,0.01
2013-11-9,86,68,53,44,37,27,54,34,14,29.98,29.87,6,2,7,0.00
2013-11-10,87,70,54,46,37,30,70,32,15,30.01,29.90,9,3,10,0.00
2013-11-11,89,74,57,45,36,28,54,28,13,29.97,29.87,11,4,15,0.00
2013-11-12,90,79,66,41,29,20,41,16,11,30.03,29.92,17,8,21,0.00
2013-11-13,91,79,70,50,40,22,44,26,13,29.95,29.81,18,6,20,0.00
2013-11-14,88,72,64,46,40,29,47,34,12,29.87,29.65,14,4,16,0.00
2013-11-15,87,72,60,66,53,41,82,53,21,29.65,29.42,21,9,25,0.00
2013-11-16,77,64,53,49,46,42,73,53,30,29.80,29.58,13,3,14,0.00
2013-11-17,75,64,54,56,49,44,71,59,43,29.95,29.80,9,3,10,0.00
2013-11-18,79,66,54,55,51,49,83,62,36,30.01,29.87,9,3,11,0.00
2013-11-19,77,65,54,57,51,49,85,64,42,29.89,29.75,9,3,11,0.00
2013-11-20,78,66,56,59,52,49,80,64,41,29.80,29.69,8,3,13,0.00
2013-11-21,77,65,58,65,59,53,99,81,54,29.82,29.72,11,4,11,0.06
2013-11-22,59,56,52,59,55,51,99,97,91,29.88,29.72,16,8,16,0.67
2013-11-23,61,56,52,53,52,51,98,88,73,30.01,29.87,14,8,15,0.00
2013-11-24,66,58,51,52,50,48,93,75,55,30.10,30.00,14,4,14,0.00
2013-11-25,70,59,48,51,47,42,94,68,36,30.15,30.06,12,4,17,0.00
2013-11-26,72,61,52,50,48,46,86,65,39,30.18,30.02,11,6,11,0.00
2013-11-27,72,62,56,48,42,33,74,51,24,30.02,29.84,18,7,18,0.00
2013-11-28,75,62,52,48,42,34,74,51,26,29.98,29.83,14,5,17,0.00
2013-11-29,74,61,50,48,45,40,85,59,31,30.09,29.96,11,3,11,0.00
2013-11-30,74,63,53,47,43,39,75,52,29,30.11,29.98,13,4,17,0.00